sensor_id;sensor_type;location;lat;lon;timestamp;P1;durP1;ratioP1;P2;durP2;ratioP2
35394;SDS011;21500;45.308;9.488;2022-10-13T00:00:51;30.92;;;26.75;;
35394;SDS011;21500;45.308;9.488;2022-10-13T00:03:17;33.72;;;25.33;;
35394;SDS011;21500;45.308;9.488;2022-10-13T00:05:44;36.20;;;25.73;;
35394;SDS011;21500;45.308;9.488;2022-10-13T00:08:12;35.08;;;26.15;;
35394;SDS011;21500;45.308;9.488;2022-10-13T00:10:44;37.72;;;26.65;;
35394;SDS011;21500;45.308;9.488;2022-10-13T00:13:12;38.88;;;26.92;;
35394;SDS011;21500;45.308;9.488;2022-10-13T00:15:41;34.55;;;26.55;;
35394;SDS011;21500;45.308;9.488;2022-10-13T00:18:09;32.65;;;24.92;;
35394;SDS011;21500;45.308;9.488;2022-10-13T00:20:38;34.55;;;25.88;;
35394;SDS011;21500;45.308;9.488;2022-10-13T00:23:06;31.48;;;25.05;;
35394;SDS011;21500;45.308;9.488;2022-10-13T00:25:32;35.90;;;26.45;;
35394;SDS011;21500;45.308;9.488;2022-10-13T00:27:58;38.25;;;28.05;;
35394;SDS011;21500;45.308;9.488;2022-10-13T00:30:32;35.80;;;25.13;;
35394;SDS011;21500;45.308;9.488;2022-10-13T00:32:59;37.60;;;27.00;;
35394;SDS011;21500;45.308;9.488;2022-10-13T00:35:25;41.88;;;28.13;;
35394;SDS011;21500;45.308;9.488;2022-10-13T00:37:50;33.08;;;25.80;;
35394;SDS011;21500;45.308;9.488;2022-10-13T00:40:17;33.40;;;26.50;;
35394;SDS011;21500;45.308;9.488;2022-10-13T00:42:43;35.97;;;26.20;;
35394;SDS011;21500;45.308;9.488;2022-10-13T00:45:19;37.00;;;26.40;;
35394;SDS011;21500;45.308;9.488;2022-10-13T00:47:54;32.65;;;26.30;;
35394;SDS011;21500;45.308;9.488;2022-10-13T00:50:24;35.53;;;26.05;;
35394;SDS011;21500;45.308;9.488;2022-10-13T00:52:55;33.85;;;26.80;;
35394;SDS011;21500;45.308;9.488;2022-10-13T00:55:24;33.70;;;25.35;;
35394;SDS011;21500;45.308;9.488;2022-10-13T00:57:54;37.97;;;27.15;;
35394;SDS011;21500;45.308;9.488;2022-10-13T01:00:27;37.65;;;27.45;;
35394;SDS011;21500;45.308;9.488;2022-10-13T01:02:54;34.08;;;26.30;;
35394;SDS011;21500;45.308;9.488;2022-10-13T01:05:20;35.17;;;27.52;;
35394;SDS011;21500;45.308;9.488;2022-10-13T01:07:48;31.90;;;25.90;;
35394;SDS011;21500;45.308;9.488;2022-10-13T01:10:15;33.42;;;26.55;;
35394;SDS011;21500;45.308;9.488;2022-10-13T01:12:59;34.72;;;27.80;;
35394;SDS011;21500;45.308;9.488;2022-10-13T01:15:49;34.33;;;25.55;;
35394;SDS011;21500;45.308;9.488;2022-10-13T01:23:57;28.77;;;24.15;;
35394;SDS011;21500;45.308;9.488;2022-10-13T01:34:30;36.97;;;25.23;;
35394;SDS011;21500;45.308;9.488;2022-10-13T01:37:32;35.53;;;26.75;;
35394;SDS011;21500;45.308;9.488;2022-10-13T01:40:25;39.03;;;25.42;;
35394;SDS011;21500;45.308;9.488;2022-10-13T01:43:15;31.83;;;25.55;;
35394;SDS011;21500;45.308;9.488;2022-10-13T01:46:02;36.45;;;26.33;;
35394;SDS011;21500;45.308;9.488;2022-10-13T01:48:36;32.03;;;24.35;;
35394;SDS011;21500;45.308;9.488;2022-10-13T01:51:04;39.92;;;29.23;;
35394;SDS011;21500;45.308;9.488;2022-10-13T01:53:33;33.45;;;26.08;;
35394;SDS011;21500;45.308;9.488;2022-10-13T01:56:01;31.23;;;24.55;;
35394;SDS011;21500;45.308;9.488;2022-10-13T01:58:28;32.70;;;26.25;;
35394;SDS011;21500;45.308;9.488;2022-10-13T02:03:34;30.45;;;25.05;;
35394;SDS011;21500;45.308;9.488;2022-10-13T02:06:28;32.33;;;25.17;;
35394;SDS011;21500;45.308;9.488;2022-10-13T02:11:32;29.63;;;24.58;;
35394;SDS011;21500;45.308;9.488;2022-10-13T02:14:09;32.08;;;24.23;;
35394;SDS011;21500;45.308;9.488;2022-10-13T02:16:41;32.50;;;24.20;;
35394;SDS011;21500;45.308;9.488;2022-10-13T02:19:10;34.35;;;25.45;;
35394;SDS011;21500;45.308;9.488;2022-10-13T02:21:39;33.58;;;25.83;;
35394;SDS011;21500;45.308;9.488;2022-10-13T02:24:06;32.05;;;25.40;;
35394;SDS011;21500;45.308;9.488;2022-10-13T02:26:33;38.60;;;25.80;;
35394;SDS011;21500;45.308;9.488;2022-10-13T02:29:11;31.30;;;25.58;;
35394;SDS011;21500;45.308;9.488;2022-10-13T02:31:38;36.20;;;26.75;;
35394;SDS011;21500;45.308;9.488;2022-10-13T02:34:05;33.42;;;26.27;;
35394;SDS011;21500;45.308;9.488;2022-10-13T02:36:32;37.60;;;25.80;;
35394;SDS011;21500;45.308;9.488;2022-10-13T02:38:58;36.13;;;26.15;;
35394;SDS011;21500;45.308;9.488;2022-10-13T02:41:24;28.80;;;24.05;;
35394;SDS011;21500;45.308;9.488;2022-10-13T02:43:50;30.00;;;25.40;;
35394;SDS011;21500;45.308;9.488;2022-10-13T02:46:16;31.05;;;25.70;;
35394;SDS011;21500;45.308;9.488;2022-10-13T02:48:42;30.65;;;26.08;;
35394;SDS011;21500;45.308;9.488;2022-10-13T02:51:08;36.00;;;27.00;;
35394;SDS011;21500;45.308;9.488;2022-10-13T02:53:34;33.22;;;27.88;;
35394;SDS011;21500;45.308;9.488;2022-10-13T02:56:03;34.92;;;26.23;;
35394;SDS011;21500;45.308;9.488;2022-10-13T02:58:30;35.25;;;26.02;;
35394;SDS011;21500;45.308;9.488;2022-10-13T03:03:35;36.55;;;27.08;;
35394;SDS011;21500;45.308;9.488;2022-10-13T03:06:02;38.58;;;27.67;;
35394;SDS011;21500;45.308;9.488;2022-10-13T03:08:28;34.90;;;26.30;;
35394;SDS011;21500;45.308;9.488;2022-10-13T03:10:53;34.78;;;26.52;;
35394;SDS011;21500;45.308;9.488;2022-10-13T03:13:19;34.53;;;27.13;;
35394;SDS011;21500;45.308;9.488;2022-10-13T03:15:45;38.53;;;27.75;;
35394;SDS011;21500;45.308;9.488;2022-10-13T03:18:12;35.00;;;26.83;;
35394;SDS011;21500;45.308;9.488;2022-10-13T03:20:38;38.60;;;28.83;;
35394;SDS011;21500;45.308;9.488;2022-10-13T03:23:04;39.83;;;27.15;;
35394;SDS011;21500;45.308;9.488;2022-10-13T03:25:31;34.25;;;27.88;;
35394;SDS011;21500;45.308;9.488;2022-10-13T03:27:57;36.72;;;27.48;;
35394;SDS011;21500;45.308;9.488;2022-10-13T03:30:23;35.42;;;26.15;;
35394;SDS011;21500;45.308;9.488;2022-10-13T03:32:50;37.00;;;27.88;;
35394;SDS011;21500;45.308;9.488;2022-10-13T03:35:16;33.00;;;26.65;;
35394;SDS011;21500;45.308;9.488;2022-10-13T03:37:42;33.05;;;26.48;;
35394;SDS011;21500;45.308;9.488;2022-10-13T03:40:08;35.83;;;29.00;;
35394;SDS011;21500;45.308;9.488;2022-10-13T03:42:34;35.10;;;26.65;;
35394;SDS011;21500;45.308;9.488;2022-10-13T03:45:01;33.22;;;26.27;;
35394;SDS011;21500;45.308;9.488;2022-10-13T03:47:28;32.80;;;26.10;;
35394;SDS011;21500;45.308;9.488;2022-10-13T03:49:54;29.98;;;24.17;;
35394;SDS011;21500;45.308;9.488;2022-10-13T03:52:21;35.50;;;26.15;;
35394;SDS011;21500;45.308;9.488;2022-10-13T03:54:47;39.13;;;27.80;;
35394;SDS011;21500;45.308;9.488;2022-10-13T03:57:13;33.75;;;26.23;;
35394;SDS011;21500;45.308;9.488;2022-10-13T03:59:39;38.22;;;27.30;;
35394;SDS011;21500;45.308;9.488;2022-10-13T04:02:05;34.60;;;25.73;;
35394;SDS011;21500;45.308;9.488;2022-10-13T04:04:31;34.38;;;25.90;;
35394;SDS011;21500;45.308;9.488;2022-10-13T04:06:58;33.95;;;26.05;;
35394;SDS011;21500;45.308;9.488;2022-10-13T04:09:24;33.38;;;26.05;;
35394;SDS011;21500;45.308;9.488;2022-10-13T04:11:50;36.95;;;27.63;;
35394;SDS011;21500;45.308;9.488;2022-10-13T04:14:18;40.25;;;28.13;;
35394;SDS011;21500;45.308;9.488;2022-10-13T04:16:44;33.72;;;25.63;;
35394;SDS011;21500;45.308;9.488;2022-10-13T04:19:11;31.35;;;24.65;;
35394;SDS011;21500;45.308;9.488;2022-10-13T04:21:39;35.00;;;25.55;;
35394;SDS011;21500;45.308;9.488;2022-10-13T04:24:05;31.52;;;24.00;;
35394;SDS011;21500;45.308;9.488;2022-10-13T04:26:33;29.67;;;23.13;;
35394;SDS011;21500;45.308;9.488;2022-10-13T04:29:05;32.35;;;23.30;;
35394;SDS011;21500;45.308;9.488;2022-10-13T04:31:32;30.25;;;24.33;;
35394;SDS011;21500;45.308;9.488;2022-10-13T04:33:58;34.50;;;23.50;;
35394;SDS011;21500;45.308;9.488;2022-10-13T04:36:24;34.05;;;25.38;;
35394;SDS011;21500;45.308;9.488;2022-10-13T04:38:52;33.60;;;25.25;;
35394;SDS011;21500;45.308;9.488;2022-10-13T04:41:18;32.90;;;24.33;;
35394;SDS011;21500;45.308;9.488;2022-10-13T04:43:48;29.80;;;25.33;;
35394;SDS011;21500;45.308;9.488;2022-10-13T04:46:19;35.83;;;27.20;;
35394;SDS011;21500;45.308;9.488;2022-10-13T04:48:47;30.33;;;26.02;;
35394;SDS011;21500;45.308;9.488;2022-10-13T04:51:14;36.42;;;26.23;;
35394;SDS011;21500;45.308;9.488;2022-10-13T04:53:58;32.85;;;26.15;;
35394;SDS011;21500;45.308;9.488;2022-10-13T04:56:30;33.42;;;26.10;;
35394;SDS011;21500;45.308;9.488;2022-10-13T04:59:00;36.17;;;26.43;;
35394;SDS011;21500;45.308;9.488;2022-10-13T05:01:26;35.05;;;27.58;;
35394;SDS011;21500;45.308;9.488;2022-10-13T05:03:53;34.53;;;26.75;;
35394;SDS011;21500;45.308;9.488;2022-10-13T05:06:22;36.80;;;28.45;;
35394;SDS011;21500;45.308;9.488;2022-10-13T05:08:53;36.80;;;29.38;;
35394;SDS011;21500;45.308;9.488;2022-10-13T05:11:21;41.00;;;29.60;;
35394;SDS011;21500;45.308;9.488;2022-10-13T05:13:48;39.00;;;29.83;;
35394;SDS011;21500;45.308;9.488;2022-10-13T05:16:15;36.55;;;29.65;;
35394;SDS011;21500;45.308;9.488;2022-10-13T05:18:42;47.30;;;31.48;;
35394;SDS011;21500;45.308;9.488;2022-10-13T05:21:12;42.53;;;30.67;;
35394;SDS011;21500;45.308;9.488;2022-10-13T05:23:40;38.03;;;28.85;;
35394;SDS011;21500;45.308;9.488;2022-10-13T05:26:07;37.25;;;30.52;;
35394;SDS011;21500;45.308;9.488;2022-10-13T05:28:34;39.40;;;29.90;;
35394;SDS011;21500;45.308;9.488;2022-10-13T05:31:07;37.45;;;29.15;;
35394;SDS011;21500;45.308;9.488;2022-10-13T05:33:33;41.60;;;29.52;;
35394;SDS011;21500;45.308;9.488;2022-10-13T05:36:06;34.65;;;29.40;;
35394;SDS011;21500;45.308;9.488;2022-10-13T05:38:35;39.92;;;29.15;;
35394;SDS011;21500;45.308;9.488;2022-10-13T05:41:08;38.05;;;27.58;;
35394;SDS011;21500;45.308;9.488;2022-10-13T05:43:36;36.40;;;29.33;;
35394;SDS011;21500;45.308;9.488;2022-10-13T14:20:02;29.15;;;21.50;;
35394;SDS011;21500;45.308;9.488;2022-10-13T14:22:28;30.35;;;21.27;;
35394;SDS011;21500;45.308;9.488;2022-10-13T14:24:54;28.10;;;22.13;;
35394;SDS011;21500;45.308;9.488;2022-10-13T14:27:20;29.38;;;22.70;;
35394;SDS011;21500;45.308;9.488;2022-10-13T14:29:47;28.10;;;21.00;;
35394;SDS011;21500;45.308;9.488;2022-10-13T14:32:14;35.13;;;24.55;;
35394;SDS011;21500;45.308;9.488;2022-10-13T14:34:40;27.83;;;21.65;;
35394;SDS011;21500;45.308;9.488;2022-10-13T14:37:06;31.33;;;22.20;;
35394;SDS011;21500;45.308;9.488;2022-10-13T14:39:32;32.70;;;23.58;;
35394;SDS011;21500;45.308;9.488;2022-10-13T14:41:58;28.77;;;22.67;;
35394;SDS011;21500;45.308;9.488;2022-10-13T14:44:23;29.55;;;23.13;;
35394;SDS011;21500;45.308;9.488;2022-10-13T14:46:49;34.35;;;23.33;;
35394;SDS011;21500;45.308;9.488;2022-10-13T14:49:15;31.67;;;24.92;;
35394;SDS011;21500;45.308;9.488;2022-10-13T14:51:41;33.22;;;24.67;;
35394;SDS011;21500;45.308;9.488;2022-10-13T14:54:07;36.58;;;24.73;;
35394;SDS011;21500;45.308;9.488;2022-10-13T14:56:34;37.30;;;25.02;;
35394;SDS011;21500;45.308;9.488;2022-10-13T15:07:06;34.58;;;24.85;;
35394;SDS011;21500;45.308;9.488;2022-10-13T15:09:34;32.53;;;23.77;;
35394;SDS011;21500;45.308;9.488;2022-10-13T15:12:00;34.78;;;24.92;;
35394;SDS011;21500;45.308;9.488;2022-10-13T15:14:26;42.13;;;24.88;;
35394;SDS011;21500;45.308;9.488;2022-10-13T15:16:53;28.73;;;23.38;;
35394;SDS011;21500;45.308;9.488;2022-10-13T15:19:20;28.63;;;22.35;;
35394;SDS011;21500;45.308;9.488;2022-10-13T15:21:46;35.95;;;24.85;;
35394;SDS011;21500;45.308;9.488;2022-10-13T15:24:11;36.25;;;24.77;;
35394;SDS011;21500;45.308;9.488;2022-10-13T15:26:40;36.78;;;25.02;;
35394;SDS011;21500;45.308;9.488;2022-10-13T15:29:06;40.88;;;27.20;;
35394;SDS011;21500;45.308;9.488;2022-10-13T15:31:44;32.60;;;23.92;;
35394;SDS011;21500;45.308;9.488;2022-10-13T15:34:10;37.40;;;25.55;;
35394;SDS011;21500;45.308;9.488;2022-10-13T15:36:36;39.05;;;25.80;;
35394;SDS011;21500;45.308;9.488;2022-10-13T15:39:02;34.97;;;24.98;;
35394;SDS011;21500;45.308;9.488;2022-10-13T15:41:27;41.70;;;26.35;;
35394;SDS011;21500;45.308;9.488;2022-10-13T15:43:53;38.10;;;27.00;;
35394;SDS011;21500;45.308;9.488;2022-10-13T15:46:19;36.50;;;26.42;;
35394;SDS011;21500;45.308;9.488;2022-10-13T15:48:51;36.35;;;26.50;;
35394;SDS011;21500;45.308;9.488;2022-10-13T15:51:20;38.63;;;25.67;;
35394;SDS011;21500;45.308;9.488;2022-10-13T15:53:48;36.10;;;24.13;;
35394;SDS011;21500;45.308;9.488;2022-10-13T15:56:14;28.23;;;21.75;;
35394;SDS011;21500;45.308;9.488;2022-10-13T15:58:40;32.38;;;24.73;;
35394;SDS011;21500;45.308;9.488;2022-10-13T16:01:07;31.90;;;23.45;;
35394;SDS011;21500;45.308;9.488;2022-10-13T16:03:34;34.88;;;23.10;;
35394;SDS011;21500;45.308;9.488;2022-10-13T16:06:01;34.40;;;24.05;;
35394;SDS011;21500;45.308;9.488;2022-10-13T16:08:28;33.67;;;23.83;;
35394;SDS011;21500;45.308;9.488;2022-10-13T16:10:54;37.67;;;23.95;;
35394;SDS011;21500;45.308;9.488;2022-10-13T16:13:20;32.50;;;24.08;;
35394;SDS011;21500;45.308;9.488;2022-10-13T16:15:56;31.90;;;22.20;;
35394;SDS011;21500;45.308;9.488;2022-10-13T16:18:22;31.33;;;23.38;;
35394;SDS011;21500;45.308;9.488;2022-10-13T16:20:52;31.58;;;23.42;;
35394;SDS011;21500;45.308;9.488;2022-10-13T16:23:17;34.75;;;25.85;;
35394;SDS011;21500;45.308;9.488;2022-10-13T16:25:43;33.22;;;24.95;;
35394;SDS011;21500;45.308;9.488;2022-10-13T16:28:09;39.97;;;23.75;;
35394;SDS011;21500;45.308;9.488;2022-10-13T16:30:35;39.78;;;25.15;;
35394;SDS011;21500;45.308;9.488;2022-10-13T16:33:02;36.55;;;25.02;;
35394;SDS011;21500;45.308;9.488;2022-10-13T16:35:30;38.50;;;23.67;;
35394;SDS011;21500;45.308;9.488;2022-10-13T17:21:11;37.38;;;26.77;;
35394;SDS011;21500;45.308;9.488;2022-10-13T17:23:38;36.88;;;26.90;;
35394;SDS011;21500;45.308;9.488;2022-10-13T17:26:05;37.97;;;25.52;;
35394;SDS011;21500;45.308;9.488;2022-10-13T17:28:35;39.53;;;26.20;;
35394;SDS011;21500;45.308;9.488;2022-10-13T17:33:34;35.38;;;26.90;;
35394;SDS011;21500;45.308;9.488;2022-10-13T17:36:03;37.65;;;26.00;;
35394;SDS011;21500;45.308;9.488;2022-10-13T17:38:33;36.08;;;25.23;;
35394;SDS011;21500;45.308;9.488;2022-10-13T17:40:59;39.00;;;28.08;;
35394;SDS011;21500;45.308;9.488;2022-10-13T17:43:26;38.72;;;24.83;;
35394;SDS011;21500;45.308;9.488;2022-10-13T17:45:53;34.80;;;25.65;;
35394;SDS011;21500;45.308;9.488;2022-10-13T17:48:19;39.85;;;28.27;;
35394;SDS011;21500;45.308;9.488;2022-10-13T17:50:45;49.38;;;27.63;;
35394;SDS011;21500;45.308;9.488;2022-10-13T17:53:10;43.30;;;26.60;;
35394;SDS011;21500;45.308;9.488;2022-10-13T17:55:36;43.20;;;28.98;;
35394;SDS011;21500;45.308;9.488;2022-10-13T17:58:02;43.65;;;28.10;;
35394;SDS011;21500;45.308;9.488;2022-10-13T18:00:29;45.75;;;28.35;;
35394;SDS011;21500;45.308;9.488;2022-10-13T18:02:54;40.28;;;26.67;;
35394;SDS011;21500;45.308;9.488;2022-10-13T18:05:20;39.13;;;26.20;;
35394;SDS011;21500;45.308;9.488;2022-10-13T18:21:10;42.40;;;28.50;;
35394;SDS011;21500;45.308;9.488;2022-10-13T18:23:38;43.47;;;27.60;;
35394;SDS011;21500;45.308;9.488;2022-10-13T18:26:06;40.88;;;26.58;;
35394;SDS011;21500;45.308;9.488;2022-10-13T18:28:36;40.70;;;26.92;;
35394;SDS011;21500;45.308;9.488;2022-10-13T18:31:05;39.05;;;28.80;;
35394;SDS011;21500;45.308;9.488;2022-10-13T18:33:33;42.58;;;28.83;;
35394;SDS011;21500;45.308;9.488;2022-10-13T18:36:00;39.38;;;27.13;;
35394;SDS011;21500;45.308;9.488;2022-10-13T18:38:26;38.40;;;29.38;;
35394;SDS011;21500;45.308;9.488;2022-10-13T18:40:52;46.20;;;30.20;;
35394;SDS011;21500;45.308;9.488;2022-10-13T18:43:20;44.35;;;30.13;;
35394;SDS011;21500;45.308;9.488;2022-10-13T18:45:49;39.63;;;28.10;;
35394;SDS011;21500;45.308;9.488;2022-10-13T18:48:14;40.38;;;27.40;;
35394;SDS011;21500;45.308;9.488;2022-10-13T18:50:40;46.15;;;28.05;;
35394;SDS011;21500;45.308;9.488;2022-10-13T18:53:06;40.22;;;27.85;;
35394;SDS011;21500;45.308;9.488;2022-10-13T18:55:34;46.38;;;28.52;;
35394;SDS011;21500;45.308;9.488;2022-10-13T18:58:00;45.40;;;28.75;;
35394;SDS011;21500;45.308;9.488;2022-10-13T19:00:26;51.45;;;29.67;;
35394;SDS011;21500;45.308;9.488;2022-10-13T19:02:52;42.00;;;27.42;;
35394;SDS011;21500;45.308;9.488;2022-10-13T19:05:18;37.15;;;26.20;;
35394;SDS011;21500;45.308;9.488;2022-10-13T19:07:44;41.00;;;28.88;;
35394;SDS011;21500;45.308;9.488;2022-10-13T19:24:07;48.30;;;30.23;;
35394;SDS011;21500;45.308;9.488;2022-10-13T19:26:34;40.65;;;27.58;;
35394;SDS011;21500;45.308;9.488;2022-10-13T19:29:32;43.58;;;29.52;;
35394;SDS011;21500;45.308;9.488;2022-10-13T19:32:24;43.00;;;30.33;;
35394;SDS011;21500;45.308;9.488;2022-10-13T19:36:17;42.63;;;28.02;;
35394;SDS011;21500;45.308;9.488;2022-10-13T19:39:15;46.67;;;31.75;;
35394;SDS011;21500;45.308;9.488;2022-10-13T19:42:01;44.95;;;29.90;;
35394;SDS011;21500;45.308;9.488;2022-10-13T19:51:47;44.85;;;30.02;;
35394;SDS011;21500;45.308;9.488;2022-10-13T19:54:40;42.22;;;29.90;;
35394;SDS011;21500;45.308;9.488;2022-10-13T20:00:51;41.15;;;29.38;;
35394;SDS011;21500;45.308;9.488;2022-10-13T20:03:19;42.40;;;29.95;;
35394;SDS011;21500;45.308;9.488;2022-10-13T20:05:50;42.85;;;30.60;;
35394;SDS011;21500;45.308;9.488;2022-10-13T20:08:17;47.97;;;29.95;;
35394;SDS011;21500;45.308;9.488;2022-10-13T20:10:53;41.75;;;30.13;;
35394;SDS011;21500;45.308;9.488;2022-10-13T20:13:22;48.58;;;32.88;;
35394;SDS011;21500;45.308;9.488;2022-10-13T20:15:49;43.10;;;31.30;;
35394;SDS011;21500;45.308;9.488;2022-10-13T20:18:15;46.10;;;33.08;;
35394;SDS011;21500;45.308;9.488;2022-10-13T20:20:41;47.42;;;32.25;;
35394;SDS011;21500;45.308;9.488;2022-10-13T20:23:08;44.13;;;30.83;;
35394;SDS011;21500;45.308;9.488;2022-10-13T20:25:37;53.38;;;35.15;;
35394;SDS011;21500;45.308;9.488;2022-10-13T20:28:03;47.88;;;33.20;;
35394;SDS011;21500;45.308;9.488;2022-10-13T20:30:31;50.47;;;35.22;;
35394;SDS011;21500;45.308;9.488;2022-10-13T20:32:58;48.40;;;34.00;;
35394;SDS011;21500;45.308;9.488;2022-10-13T20:35:25;51.97;;;36.28;;
35394;SDS011;21500;45.308;9.488;2022-10-13T20:37:52;52.13;;;34.17;;
35394;SDS011;21500;45.308;9.488;2022-10-13T20:40:19;49.70;;;32.92;;
35394;SDS011;21500;45.308;9.488;2022-10-13T20:42:50;48.25;;;33.13;;
35394;SDS011;21500;45.308;9.488;2022-10-13T20:45:22;46.17;;;33.90;;
35394;SDS011;21500;45.308;9.488;2022-10-13T20:47:49;45.95;;;33.72;;
35394;SDS011;21500;45.308;9.488;2022-10-13T20:50:15;51.13;;;35.65;;
35394;SDS011;21500;45.308;9.488;2022-10-13T20:52:44;54.85;;;35.28;;
35394;SDS011;21500;45.308;9.488;2022-10-13T20:55:13;44.28;;;31.38;;
35394;SDS011;21500;45.308;9.488;2022-10-13T20:57:41;44.85;;;30.85;;
35394;SDS011;21500;45.308;9.488;2022-10-13T21:00:09;46.35;;;34.80;;
35394;SDS011;21500;45.308;9.488;2022-10-13T21:02:40;50.13;;;32.80;;
35394;SDS011;21500;45.308;9.488;2022-10-13T21:05:06;48.10;;;34.50;;
35394;SDS011;21500;45.308;9.488;2022-10-13T21:07:32;50.05;;;34.92;;
35394;SDS011;21500;45.308;9.488;2022-10-13T21:09:59;49.55;;;34.05;;
35394;SDS011;21500;45.308;9.488;2022-10-13T21:12:27;57.88;;;36.55;;
35394;SDS011;21500;45.308;9.488;2022-10-13T21:14:53;48.20;;;35.15;;
35394;SDS011;21500;45.308;9.488;2022-10-13T21:17:20;44.25;;;32.22;;
35394;SDS011;21500;45.308;9.488;2022-10-13T21:19:47;47.55;;;33.38;;
35394;SDS011;21500;45.308;9.488;2022-10-13T21:22:13;46.35;;;33.15;;
35394;SDS011;21500;45.308;9.488;2022-10-13T21:24:40;50.90;;;35.67;;
35394;SDS011;21500;45.308;9.488;2022-10-13T21:27:07;52.05;;;37.10;;
35394;SDS011;21500;45.308;9.488;2022-10-13T21:29:34;49.55;;;36.13;;
35394;SDS011;21500;45.308;9.488;2022-10-13T21:32:00;49.17;;;34.72;;
35394;SDS011;21500;45.308;9.488;2022-10-13T21:34:26;51.05;;;35.42;;
35394;SDS011;21500;45.308;9.488;2022-10-13T21:36:52;55.97;;;36.50;;
35394;SDS011;21500;45.308;9.488;2022-10-13T21:39:19;50.58;;;36.80;;
35394;SDS011;21500;45.308;9.488;2022-10-13T21:41:46;46.10;;;33.85;;
35394;SDS011;21500;45.308;9.488;2022-10-13T21:44:12;58.17;;;38.38;;
35394;SDS011;21500;45.308;9.488;2022-10-13T21:46:39;49.45;;;37.28;;
35394;SDS011;21500;45.308;9.488;2022-10-13T21:49:05;54.65;;;37.80;;
35394;SDS011;21500;45.308;9.488;2022-10-13T21:51:34;48.95;;;35.40;;
35394;SDS011;21500;45.308;9.488;2022-10-13T21:54:05;48.83;;;36.50;;
35394;SDS011;21500;45.308;9.488;2022-10-13T21:56:33;46.88;;;35.70;;
35394;SDS011;21500;45.308;9.488;2022-10-13T21:58:59;48.20;;;37.00;;
35394;SDS011;21500;45.308;9.488;2022-10-13T22:01:26;45.70;;;33.53;;
35394;SDS011;21500;45.308;9.488;2022-10-13T22:03:57;49.35;;;33.97;;
35394;SDS011;21500;45.308;9.488;2022-10-13T22:06:28;51.63;;;33.85;;
35394;SDS011;21500;45.308;9.488;2022-10-13T22:08:59;58.95;;;34.95;;
35394;SDS011;21500;45.308;9.488;2022-10-13T22:11:29;49.80;;;35.38;;
35394;SDS011;21500;45.308;9.488;2022-10-13T22:13:56;52.95;;;35.28;;
35394;SDS011;21500;45.308;9.488;2022-10-13T22:19:22;54.47;;;35.72;;
35394;SDS011;21500;45.308;9.488;2022-10-13T22:21:49;56.53;;;38.40;;
35394;SDS011;21500;45.308;9.488;2022-10-13T22:24:17;55.45;;;38.83;;
35394;SDS011;21500;45.308;9.488;2022-10-13T22:26:46;59.03;;;40.97;;
35394;SDS011;21500;45.308;9.488;2022-10-13T22:29:14;57.03;;;40.83;;
35394;SDS011;21500;45.308;9.488;2022-10-13T22:31:43;58.85;;;44.00;;
35394;SDS011;21500;45.308;9.488;2022-10-13T22:34:11;59.42;;;40.22;;
35394;SDS011;21500;45.308;9.488;2022-10-13T22:36:38;53.47;;;38.65;;
35394;SDS011;21500;45.308;9.488;2022-10-13T22:39:10;50.72;;;37.88;;
35394;SDS011;21500;45.308;9.488;2022-10-13T22:41:36;61.47;;;43.28;;
35394;SDS011;21500;45.308;9.488;2022-10-13T22:44:02;61.83;;;42.88;;
35394;SDS011;21500;45.308;9.488;2022-10-13T22:46:32;61.97;;;42.80;;
35394;SDS011;21500;45.308;9.488;2022-10-13T22:49:00;60.10;;;44.45;;
35394;SDS011;21500;45.308;9.488;2022-10-13T22:51:29;61.15;;;41.13;;
35394;SDS011;21500;45.308;9.488;2022-10-13T22:53:58;63.08;;;42.05;;
35394;SDS011;21500;45.308;9.488;2022-10-13T22:56:29;57.05;;;40.33;;
35394;SDS011;21500;45.308;9.488;2022-10-13T22:59:02;59.47;;;42.35;;
35394;SDS011;21500;45.308;9.488;2022-10-13T23:01:30;65.50;;;44.38;;
35394;SDS011;21500;45.308;9.488;2022-10-13T23:04:01;57.55;;;41.22;;
35394;SDS011;21500;45.308;9.488;2022-10-13T23:06:29;59.83;;;41.65;;
35394;SDS011;21500;45.308;9.488;2022-10-13T23:09:00;53.90;;;39.63;;
35394;SDS011;21500;45.308;9.488;2022-10-13T23:11:37;57.75;;;39.00;;
35394;SDS011;21500;45.308;9.488;2022-10-13T23:14:05;57.10;;;38.28;;
35394;SDS011;21500;45.308;9.488;2022-10-13T23:16:32;52.13;;;39.13;;
35394;SDS011;21500;45.308;9.488;2022-10-13T23:18:58;53.80;;;39.92;;
35394;SDS011;21500;45.308;9.488;2022-10-13T23:21:28;51.67;;;39.53;;
35394;SDS011;21500;45.308;9.488;2022-10-13T23:23:55;48.72;;;37.20;;
35394;SDS011;21500;45.308;9.488;2022-10-13T23:26:23;57.38;;;40.58;;
35394;SDS011;21500;45.308;9.488;2022-10-13T23:28:51;62.85;;;42.53;;
35394;SDS011;21500;45.308;9.488;2022-10-13T23:31:18;55.35;;;40.58;;
35394;SDS011;21500;45.308;9.488;2022-10-13T23:33:45;58.45;;;39.90;;
35394;SDS011;21500;45.308;9.488;2022-10-13T23:36:18;58.63;;;40.58;;
35394;SDS011;21500;45.308;9.488;2022-10-13T23:38:52;55.70;;;39.63;;
35394;SDS011;21500;45.308;9.488;2022-10-13T23:41:20;52.58;;;37.80;;
35394;SDS011;21500;45.308;9.488;2022-10-13T23:43:47;53.80;;;38.65;;
35394;SDS011;21500;45.308;9.488;2022-10-13T23:46:13;53.30;;;39.17;;
35394;SDS011;21500;45.308;9.488;2022-10-13T23:48:39;51.53;;;39.03;;
35394;SDS011;21500;45.308;9.488;2022-10-13T23:51:16;57.22;;;39.72;;
35394;SDS011;21500;45.308;9.488;2022-10-13T23:53:43;60.60;;;41.58;;
35394;SDS011;21500;45.308;9.488;2022-10-13T23:56:11;54.75;;;37.38;;
35394;SDS011;21500;45.308;9.488;2022-10-13T23:58:38;53.80;;;38.35;;
